sensor_id;sensor_type;location;lat;lon;timestamp;pressure;altitude;pressure_sealevel;temperature;humidity
60319;BME280;46163;52.306;5.634;2023-11-19T00:00:50;100592.88;;;11.86;100.00
60319;BME280;46163;52.306;5.634;2023-11-19T00:03:16;100591.03;;;11.87;100.00
60319;BME280;46163;52.306;5.634;2023-11-19T00:05:43;100588.38;;;11.87;100.00
60319;BME280;46163;52.306;5.634;2023-11-19T00:08:09;100572.00;;;11.83;100.00
60319;BME280;46163;52.306;5.634;2023-11-19T00:10:35;100583.06;;;11.80;100.00
60319;BME280;46163;52.306;5.634;2023-11-19T00:13:00;100573.84;;;11.76;100.00
60319;BME280;46163;52.306;5.634;2023-11-19T00:15:26;100572.41;;;11.80;100.00
60319;BME280;46163;52.306;5.634;2023-11-19T00:17:51;100572.59;;;11.79;100.00
60319;BME280;46163;52.306;5.634;2023-11-19T00:20:20;100588.81;;;11.84;100.00
60319;BME280;46163;52.306;5.634;2023-11-19T00:22:47;100583.91;;;11.74;100.00
60319;BME280;46163;52.306;5.634;2023-11-19T00:25:17;100572.41;;;11.80;100.00
60319;BME280;46163;52.306;5.634;2023-11-19T00:27:42;100576.66;;;11.88;100.00
60319;BME280;46163;52.306;5.634;2023-11-19T00:30:10;100591.25;;;11.85;100.00
60319;BME280;46163;52.306;5.634;2023-11-19T00:32:36;100586.09;;;11.91;100.00
60319;BME280;46163;52.306;5.634;2023-11-19T00:35:05;100576.06;;;11.86;100.00
60319;BME280;46163;52.306;5.634;2023-11-19T00:37:31;100557.63;;;11.78;100.00
60319;BME280;46163;52.306;5.634;2023-11-19T00:39:56;100550.25;;;11.80;100.00
60319;BME280;46163;52.306;5.634;2023-11-19T00:42:22;100536.31;;;11.84;100.00
60319;BME280;46163;52.306;5.634;2023-11-19T00:44:49;100532.22;;;11.82;100.00
60319;BME280;46163;52.306;5.634;2023-11-19T00:47:14;100521.16;;;11.72;100.00
60319;BME280;46163;52.306;5.634;2023-11-19T00:49:40;100529.75;;;11.80;100.00
60319;BME280;46163;52.306;5.634;2023-11-19T00:52:05;100527.13;;;11.74;100.00
60319;BME280;46163;52.306;5.634;2023-11-19T00:54:32;100531.22;;;11.70;100.00
60319;BME280;46163;52.306;5.634;2023-11-19T00:56:57;100548.22;;;11.75;100.00
60319;BME280;46163;52.306;5.634;2023-11-19T00:59:23;100545.41;;;11.64;100.00
60319;BME280;46163;52.306;5.634;2023-11-19T01:01:48;100555.78;;;11.78;100.00
60319;BME280;46163;52.306;5.634;2023-11-19T01:04:14;100537.97;;;11.72;100.00
60319;BME280;46163;52.306;5.634;2023-11-19T01:06:40;100561.34;;;11.83;100.00
60319;BME280;46163;52.306;5.634;2023-11-19T01:09:07;100542.09;;;11.75;100.00
60319;BME280;46163;52.306;5.634;2023-11-19T01:11:34;100572.59;;;11.79;100.00
60319;BME280;46163;52.306;5.634;2023-11-19T01:14:00;100564.63;;;11.72;100.00
60319;BME280;46163;52.306;5.634;2023-11-19T01:16:26;100556.00;;;11.77;100.00
60319;BME280;46163;52.306;5.634;2023-11-19T01:18:51;100553.56;;;11.75;100.00
60319;BME280;46163;52.306;5.634;2023-11-19T01:21:17;100554.38;;;11.76;100.00
60319;BME280;46163;52.306;5.634;2023-11-19T01:23:43;100561.13;;;11.78;100.00
60319;BME280;46163;52.306;5.634;2023-11-19T01:26:09;100532.81;;;11.77;100.00
60319;BME280;46163;52.306;5.634;2023-11-19T01:28:39;100541.84;;;11.83;100.00
60319;BME280;46163;52.306;5.634;2023-11-19T01:31:05;100535.94;;;11.74;100.00
60319;BME280;46163;52.306;5.634;2023-11-19T01:33:35;100537.63;;;11.62;100.00
60319;BME280;46163;52.306;5.634;2023-11-19T01:36:01;100535.59;;;11.64;100.00
60319;BME280;46163;52.306;5.634;2023-11-19T01:38:26;100515.75;;;11.53;100.00
60319;BME280;46163;52.306;5.634;2023-11-19T01:40:56;100517.13;;;11.63;100.00
60319;BME280;46163;52.306;5.634;2023-11-19T01:43:39;100518.75;;;11.64;100.00
60319;BME280;46163;52.306;5.634;2023-11-19T01:46:07;100524.88;;;11.71;100.00
60319;BME280;46163;52.306;5.634;2023-11-19T01:48:35;100524.50;;;11.67;100.00
60319;BME280;46163;52.306;5.634;2023-11-19T01:51:03;100521.22;;;11.65;100.00
60319;BME280;46163;52.306;5.634;2023-11-19T01:53:29;100519.13;;;11.74;100.00
60319;BME280;46163;52.306;5.634;2023-11-19T01:55:56;100513.38;;;11.70;100.00
60319;BME280;46163;52.306;5.634;2023-11-19T01:58:22;100516.00;;;11.77;100.00
60319;BME280;46163;52.306;5.634;2023-11-19T02:00:48;100503.13;;;11.74;100.00
60319;BME280;46163;52.306;5.634;2023-11-19T02:03:14;100523.19;;;11.76;100.00
60319;BME280;46163;52.306;5.634;2023-11-19T02:05:40;100531.38;;;11.81;100.00
60319;BME280;46163;52.306;5.634;2023-11-19T02:08:06;100523.59;;;11.80;100.00
60319;BME280;46163;52.306;5.634;2023-11-19T02:10:32;100535.25;;;11.85;100.00
60319;BME280;46163;52.306;5.634;2023-11-19T02:12:58;100527.50;;;11.84;100.00
60319;BME280;46163;52.306;5.634;2023-11-19T02:15:24;100524.00;;;11.77;100.00
60319;BME280;46163;52.306;5.634;2023-11-19T02:17:50;100526.91;;;11.82;100.00
60319;BME280;46163;52.306;5.634;2023-11-19T02:20:16;100494.72;;;11.70;100.00
60319;BME280;46163;52.306;5.634;2023-11-19T02:22:45;100526.69;;;11.77;100.00
60319;BME280;46163;52.306;5.634;2023-11-19T02:25:18;100524.06;;;11.70;100.00
60319;BME280;46163;52.306;5.634;2023-11-19T02:28:00;100536.19;;;11.66;100.00
60319;BME280;46163;52.306;5.634;2023-11-19T02:30:26;100520.22;;;11.59;100.00
60319;BME280;46163;52.306;5.634;2023-11-19T02:32:55;100523.94;;;11.58;100.00
60319;BME280;46163;52.306;5.634;2023-11-19T02:35:26;100514.69;;;11.61;100.00
60319;BME280;46163;52.306;5.634;2023-11-19T02:37:52;100515.94;;;11.58;100.00
60319;BME280;46163;52.306;5.634;2023-11-19T02:40:17;100519.28;;;11.47;100.00
60319;BME280;46163;52.306;5.634;2023-11-19T02:42:43;100531.00;;;11.40;100.00
60319;BME280;46163;52.306;5.634;2023-11-19T02:45:09;100540.81;;;11.46;100.00
60319;BME280;46163;52.306;5.634;2023-11-19T02:47:43;100532.63;;;11.47;100.00
60319;BME280;46163;52.306;5.634;2023-11-19T02:50:09;100530.56;;;11.43;100.00
60319;BME280;46163;52.306;5.634;2023-11-19T02:52:43;100528.16;;;11.35;100.00
60319;BME280;46163;52.306;5.634;2023-11-19T02:55:10;100490.75;;;11.16;100.00
60319;BME280;46163;52.306;5.634;2023-11-19T02:57:38;100524.25;;;11.37;100.00
60319;BME280;46163;52.306;5.634;2023-11-19T03:00:13;100526.09;;;11.37;100.00
60319;BME280;46163;52.306;5.634;2023-11-19T03:02:42;100536.16;;;11.35;100.00
60319;BME280;46163;52.306;5.634;2023-11-19T03:05:19;100537.78;;;11.36;100.00
60319;BME280;46163;52.306;5.634;2023-11-19T03:07:45;100528.97;;;11.35;100.00
60319;BME280;46163;52.306;5.634;2023-11-19T03:10:11;100526.34;;;11.28;100.00
60319;BME280;46163;52.306;5.634;2023-11-19T03:12:40;100524.53;;;11.22;100.00
60319;BME280;46163;52.306;5.634;2023-11-19T03:15:07;100523.75;;;11.15;100.00
60319;BME280;46163;52.306;5.634;2023-11-19T03:17:33;100539.88;;;11.27;100.00
60319;BME280;46163;52.306;5.634;2023-11-19T03:20:00;100524.53;;;11.22;100.00
60319;BME280;46163;52.306;5.634;2023-11-19T03:22:26;100534.16;;;11.23;100.00
60319;BME280;46163;52.306;5.634;2023-11-19T03:24:52;100544.00;;;11.23;100.00
60319;BME280;46163;52.306;5.634;2023-11-19T03:27:17;100540.94;;;11.19;100.00
60319;BME280;46163;52.306;5.634;2023-11-19T03:29:42;100537.22;;;11.20;100.00
60319;BME280;46163;52.306;5.634;2023-11-19T03:32:08;100530.28;;;11.19;100.00
60319;BME280;46163;52.306;5.634;2023-11-19T03:34:34;100529.31;;;11.07;100.00
60319;BME280;46163;52.306;5.634;2023-11-19T03:36:59;100520.75;;;10.98;100.00
60319;BME280;46163;52.306;5.634;2023-11-19T03:39:25;100516.09;;;10.87;100.00
60319;BME280;46163;52.306;5.634;2023-11-19T03:41:52;100521.41;;;10.87;100.00
60319;BME280;46163;52.306;5.634;2023-11-19T03:44:17;100523.28;;;10.73;100.00
60319;BME280;46163;52.306;5.634;2023-11-19T03:46:44;100508.78;;;10.63;100.00
60319;BME280;46163;52.306;5.634;2023-11-19T03:49:09;100523.34;;;10.60;100.00
60319;BME280;46163;52.306;5.634;2023-11-19T03:51:35;100508.78;;;10.56;100.00
60319;BME280;46163;52.306;5.634;2023-11-19T03:54:01;100520.03;;;10.65;100.00
60319;BME280;46163;52.306;5.634;2023-11-19T03:56:26;100514.31;;;10.55;100.00
60319;BME280;46163;52.306;5.634;2023-11-19T03:58:52;100510.25;;;10.52;100.00
60319;BME280;46163;52.306;5.634;2023-11-19T04:01:18;100519.03;;;10.53;100.00
60319;BME280;46163;52.306;5.634;2023-11-19T04:03:43;100526.41;;;10.51;100.00
60319;BME280;46163;52.306;5.634;2023-11-19T04:06:09;100514.56;;;10.33;100.00
60319;BME280;46163;52.306;5.634;2023-11-19T04:08:35;100525.00;;;10.35;100.00
60319;BME280;46163;52.306;5.634;2023-11-19T04:11:04;100537.47;;;10.41;100.00
60319;BME280;46163;52.306;5.634;2023-11-19T04:13:30;100528.88;;;10.39;100.00
60319;BME280;46163;52.306;5.634;2023-11-19T04:15:56;100523.34;;;10.40;100.00
60319;BME280;46163;52.306;5.634;2023-11-19T04:18:21;100527.63;;;10.48;100.00
60319;BME280;46163;52.306;5.634;2023-11-19T04:20:47;100518.22;;;10.45;100.00
60319;BME280;46163;52.306;5.634;2023-11-19T04:23:12;100527.41;;;10.56;100.00
60319;BME280;46163;52.306;5.634;2023-11-19T04:25:37;100536.63;;;10.60;100.00
60319;BME280;46163;52.306;5.634;2023-11-19T04:28:03;100538.88;;;10.63;100.00
60319;BME280;46163;52.306;5.634;2023-11-19T04:30:29;100537.84;;;10.64;100.00
60319;BME280;46163;52.306;5.634;2023-11-19T04:32:57;100539.31;;;10.60;100.00
60319;BME280;46163;52.306;5.634;2023-11-19T04:35:22;100542.13;;;10.59;100.00
60319;BME280;46163;52.306;5.634;2023-11-19T04:37:48;100543.16;;;10.64;100.00
60319;BME280;46163;52.306;5.634;2023-11-19T04:40:13;100537.44;;;10.61;100.00
60319;BME280;46163;52.306;5.634;2023-11-19T04:42:39;100530.69;;;10.58;100.00
60319;BME280;46163;52.306;5.634;2023-11-19T04:45:07;100544.19;;;10.70;100.00
60319;BME280;46163;52.306;5.634;2023-11-19T04:47:35;100537.63;;;10.66;100.00
60319;BME280;46163;52.306;5.634;2023-11-19T04:50:00;100545.00;;;10.64;100.00
60319;BME280;46163;52.306;5.634;2023-11-19T04:52:26;100546.84;;;10.63;100.00
60319;BME280;46163;52.306;5.634;2023-11-19T04:54:51;100536.44;;;10.55;100.00
60319;BME280;46163;52.306;5.634;2023-11-19T04:57:17;100546.44;;;10.60;100.00
60319;BME280;46163;52.306;5.634;2023-11-19T04:59:43;100546.03;;;10.56;100.00
60319;BME280;46163;52.306;5.634;2023-11-19T05:02:09;100522.53;;;10.46;100.00
60319;BME280;46163;52.306;5.634;2023-11-19T05:04:34;100526.63;;;10.42;100.00
60319;BME280;46163;52.306;5.634;2023-11-19T05:07:00;100538.28;;;10.55;100.00
60319;BME280;46163;52.306;5.634;2023-11-19T05:09:25;100540.13;;;10.54;100.00
60319;BME280;46163;52.306;5.634;2023-11-19T05:11:51;100530.28;;;10.48;100.00
60319;BME280;46163;52.306;5.634;2023-11-19T05:14:16;100533.59;;;10.43;100.00
60319;BME280;46163;52.306;5.634;2023-11-19T05:16:43;100544.84;;;10.45;100.00
60319;BME280;46163;52.306;5.634;2023-11-19T05:19:09;100550.97;;;10.46;100.00
60319;BME280;46163;52.306;5.634;2023-11-19T05:21:34;100544.63;;;10.40;100.00
60319;BME280;46163;52.306;5.634;2023-11-19T05:24:02;100547.72;;;10.44;100.00
60319;BME280;46163;52.306;5.634;2023-11-19T05:26:30;100545.25;;;10.36;100.00
60319;BME280;46163;52.306;5.634;2023-11-19T05:28:56;100548.75;;;10.30;100.00
60319;BME280;46163;52.306;5.634;2023-11-19T05:31:21;100533.81;;;10.29;100.00
60319;BME280;46163;52.306;5.634;2023-11-19T05:33:46;100552.00;;;10.38;100.00
60319;BME280;46163;52.306;5.634;2023-11-19T05:36:12;100555.09;;;10.35;100.00
60319;BME280;46163;52.306;5.634;2023-11-19T05:38:38;100544.22;;;10.30;100.00
60319;BME280;46163;52.306;5.634;2023-11-19T05:41:04;100527.63;;;10.22;100.00
60319;BME280;46163;52.306;5.634;2023-11-19T05:43:31;100552.81;;;10.39;100.00
60319;BME280;46163;52.306;5.634;2023-11-19T05:45:56;100553.44;;;10.34;100.00
60319;BME280;46163;52.306;5.634;2023-11-19T05:48:22;100561.63;;;10.33;100.00
60319;BME280;46163;52.306;5.634;2023-11-19T05:50:48;100549.13;;;10.33;100.00
60319;BME280;46163;52.306;5.634;2023-11-19T05:53:15;100504.13;;;10.05;100.00
60319;BME280;46163;52.306;5.634;2023-11-19T05:55:41;100532.94;;;10.22;100.00
60319;BME280;46163;52.306;5.634;2023-11-19T05:58:24;100561.00;;;10.31;100.00
60319;BME280;46163;52.306;5.634;2023-11-19T06:00:55;100559.78;;;10.27;100.00
60319;BME280;46163;52.306;5.634;2023-11-19T06:03:21;100558.56;;;10.23;100.00
60319;BME280;46163;52.306;5.634;2023-11-19T06:05:48;100556.31;;;10.26;100.00
60319;BME280;46163;52.306;5.634;2023-11-19T06:08:13;100567.34;;;10.30;100.00
60319;BME280;46163;52.306;5.634;2023-11-19T06:10:43;100561.44;;;10.28;100.00
60319;BME280;46163;52.306;5.634;2023-11-19T06:13:11;100563.47;;;10.26;100.00
60319;BME280;46163;52.306;5.634;2023-11-19T06:15:37;100552.41;;;10.22;100.00
60319;BME280;46163;52.306;5.634;2023-11-19T06:18:03;100546.88;;;10.24;100.00
60319;BME280;46163;52.306;5.634;2023-11-19T06:20:33;100548.72;;;10.16;100.00
60319;BME280;46163;52.306;5.634;2023-11-19T06:22:59;100531.72;;;9.98;100.00
60319;BME280;46163;52.306;5.634;2023-11-19T06:25:25;100566.50;;;10.09;100.00
60319;BME280;46163;52.306;5.634;2023-11-19T06:27:51;100567.72;;;10.07;100.00
60319;BME280;46163;52.306;5.634;2023-11-19T06:30:17;100542.38;;;9.91;100.00
60319;BME280;46163;52.306;5.634;2023-11-19T06:32:42;100557.47;;;9.97;100.00
60319;BME280;46163;52.306;5.634;2023-11-19T06:35:08;100565.88;;;10.07;100.00
60319;BME280;46163;52.306;5.634;2023-11-19T06:37:35;100560.16;;;10.10;100.00
60319;BME280;46163;52.306;5.634;2023-11-19T06:40:00;100556.47;;;10.05;100.00
60319;BME280;46163;52.306;5.634;2023-11-19T06:42:26;100567.53;;;10.02;100.00
60319;BME280;46163;52.306;5.634;2023-11-19T06:44:52;100570.44;;;10.27;100.00
60319;BME280;46163;52.306;5.634;2023-11-19T06:47:17;100566.97;;;10.26;100.00
60319;BME280;46163;52.306;5.634;2023-11-19T06:49:46;100568.59;;;10.34;100.00
60319;BME280;46163;52.306;5.634;2023-11-19T06:52:12;100572.25;;;10.19;100.00
60319;BME280;46163;52.306;5.634;2023-11-19T06:54:40;100569.38;;;10.21;100.00
60319;BME280;46163;52.306;5.634;2023-11-19T06:57:06;100577.78;;;10.25;100.00
60319;BME280;46163;52.306;5.634;2023-11-19T06:59:31;100561.22;;;10.23;100.00
60319;BME280;46163;52.306;5.634;2023-11-19T07:01:56;100572.22;;;10.13;100.00
60319;BME280;46163;52.306;5.634;2023-11-19T07:04:22;100567.53;;;10.08;100.00
60319;BME280;46163;52.306;5.634;2023-11-19T07:06:47;100570.38;;;10.07;100.00
60319;BME280;46163;52.306;5.634;2023-11-19T07:09:18;100570.00;;;10.16;100.00
60319;BME280;46163;52.306;5.634;2023-11-19T07:11:44;100575.94;;;10.18;100.00
60319;BME280;46163;52.306;5.634;2023-11-19T07:14:11;100578.16;;;10.15;100.00
60319;BME280;46163;52.306;5.634;2023-11-19T07:16:37;100579.59;;;10.11;100.00
60319;BME280;46163;52.306;5.634;2023-11-19T07:19:04;100585.13;;;10.09;100.00
60319;BME280;46163;52.306;5.634;2023-11-19T07:21:31;100581.22;;;9.92;100.00
60319;BME280;46163;52.306;5.634;2023-11-19T07:23:58;100592.47;;;10.01;100.00
60319;BME280;46163;52.306;5.634;2023-11-19T07:26:23;100581.81;;;9.94;100.00
60319;BME280;46163;52.306;5.634;2023-11-19T07:28:49;100592.69;;;10.12;100.00
60319;BME280;46163;52.306;5.634;2023-11-19T07:31:16;100603.94;;;10.14;100.00
60319;BME280;46163;52.306;5.634;2023-11-19T07:33:41;100584.91;;;10.04;100.00
60319;BME280;46163;52.306;5.634;2023-11-19T07:36:10;100608.88;;;10.24;100.00
60319;BME280;46163;52.306;5.634;2023-11-19T07:38:36;100596.84;;;10.35;100.00
60319;BME280;46163;52.306;5.634;2023-11-19T07:41:02;100605.00;;;10.33;100.00
60319;BME280;46163;52.306;5.634;2023-11-19T07:43:28;100596.22;;;10.26;100.00
60319;BME280;46163;52.306;5.634;2023-11-19T07:45:53;100606.81;;;10.19;100.00
60319;BME280;46163;52.306;5.634;2023-11-19T07:48:19;100599.06;;;10.25;100.00
60319;BME280;46163;52.306;5.634;2023-11-19T07:50:49;100602.75;;;10.24;100.00
60319;BME280;46163;52.306;5.634;2023-11-19T07:53:16;100604.81;;;10.35;100.00
60319;BME280;46163;52.306;5.634;2023-11-19T07:55:42;100610.31;;;10.33;100.00
60319;BME280;46163;52.306;5.634;2023-11-19T07:58:07;100604.81;;;10.35;100.00
60319;BME280;46163;52.306;5.634;2023-11-19T08:00:33;100600.09;;;10.43;100.00
60319;BME280;46163;52.306;5.634;2023-11-19T08:02:58;100604.00;;;10.34;100.00
60319;BME280;46163;52.306;5.634;2023-11-19T08:05:24;100600.09;;;10.30;100.00
60319;BME280;46163;52.306;5.634;2023-11-19T08:07:52;100599.69;;;10.40;100.00
60319;BME280;46163;52.306;5.634;2023-11-19T08:10:20;100587.81;;;10.29;100.00
60319;BME280;46163;52.306;5.634;2023-11-19T08:12:46;100596.38;;;10.58;100.00
60319;BME280;46163;52.306;5.634;2023-11-19T08:15:12;100611.53;;;10.57;100.00
60319;BME280;46163;52.306;5.634;2023-11-19T08:17:38;100600.28;;;10.55;100.00
60319;BME280;46163;52.306;5.634;2023-11-19T08:20:04;100607.47;;;10.28;100.00
60319;BME280;46163;52.306;5.634;2023-11-19T08:22:30;100608.69;;;10.26;100.00
60319;BME280;46163;52.306;5.634;2023-11-19T08:24:56;100601.31;;;10.28;100.00
60319;BME280;46163;52.306;5.634;2023-11-19T08:27:22;100615.44;;;10.35;100.00
60319;BME280;46163;52.306;5.634;2023-11-19T08:29:54;100605.41;;;10.37;100.00
60319;BME280;46163;52.306;5.634;2023-11-19T08:32:25;100606.63;;;10.47;100.00
60319;BME280;46163;52.306;5.634;2023-11-19T08:34:51;100585.56;;;10.39;100.00
60319;BME280;46163;52.306;5.634;2023-11-19T08:37:16;100588.00;;;10.47;100.00
60319;BME280;46163;52.306;5.634;2023-11-19T08:39:46;100599.06;;;10.64;100.00
60319;BME280;46163;52.306;5.634;2023-11-19T08:42:12;100608.06;;;10.70;100.00
60319;BME280;46163;52.306;5.634;2023-11-19T08:44:37;100600.09;;;10.63;100.00
60319;BME280;46163;52.306;5.634;2023-11-19T08:47:03;100596.19;;;10.72;100.00
60319;BME280;46163;52.306;5.634;2023-11-19T08:49:29;100604.97;;;10.73;100.00
60319;BME280;46163;52.306;5.634;2023-11-19T08:51:54;100603.34;;;10.79;100.00
60319;BME280;46163;52.306;5.634;2023-11-19T08:54:20;100595.78;;;10.69;100.00
60319;BME280;46163;52.306;5.634;2023-11-19T08:56:46;100594.94;;;10.82;100.00
60319;BME280;46163;52.306;5.634;2023-11-19T08:59:12;100603.13;;;10.87;100.00
60319;BME280;46163;52.306;5.634;2023-11-19T09:01:38;100595.13;;;10.87;100.00
60319;BME280;46163;52.306;5.634;2023-11-19T09:04:03;100592.25;;;10.88;100.00
60319;BME280;46163;52.306;5.634;2023-11-19T09:06:29;100615.75;;;11.11;100.00
60319;BME280;46163;52.306;5.634;2023-11-19T09:08:55;100615.91;;;11.29;100.00
60319;BME280;46163;52.306;5.634;2023-11-19T09:11:25;100621.44;;;11.28;100.00
60319;BME280;46163;52.306;5.634;2023-11-19T09:13:51;100620.84;;;11.19;100.00
60319;BME280;46163;52.306;5.634;2023-11-19T09:16:16;100611.41;;;11.30;100.00
60319;BME280;46163;52.306;5.634;2023-11-19T09:18:42;100607.75;;;11.18;100.00
60319;BME280;46163;52.306;5.634;2023-11-19T09:21:07;100605.88;;;11.18;100.00
60319;BME280;46163;52.306;5.634;2023-11-19T09:23:33;100615.28;;;11.27;100.00
60319;BME280;46163;52.306;5.634;2023-11-19T09:26:08;100607.03;;;11.42;100.00
60319;BME280;46163;52.306;5.634;2023-11-19T09:28:34;100611.28;;;11.56;99.86
60319;BME280;46163;52.306;5.634;2023-11-19T09:30:59;100577.16;;;11.33;100.00
60319;BME280;46163;52.306;5.634;2023-11-19T09:33:25;100593.13;;;11.40;100.00
60319;BME280;46163;52.306;5.634;2023-11-19T09:35:51;100610.53;;;11.36;100.00
60319;BME280;46163;52.306;5.634;2023-11-19T09:38:17;100601.72;;;11.36;100.00
60319;BME280;46163;52.306;5.634;2023-11-19T09:40:42;100602.19;;;11.19;100.00
60319;BME280;46163;52.306;5.634;2023-11-19T09:43:08;100603.81;;;11.27;100.00
60319;BME280;46163;52.306;5.634;2023-11-19T09:46:02;100606.69;;;11.32;100.00
60319;BME280;46163;52.306;5.634;2023-11-19T09:48:33;100609.13;;;11.27;100.00
60319;BME280;46163;52.306;5.634;2023-11-19T09:50:59;100605.19;;;11.43;100.00
60319;BME280;46163;52.306;5.634;2023-11-19T09:53:25;100597.38;;;11.48;100.00
60319;BME280;46163;52.306;5.634;2023-11-19T09:55:52;100606.59;;;11.52;100.00
60319;BME280;46163;52.306;5.634;2023-11-19T09:58:18;100610.03;;;11.59;98.66
60319;BME280;46163;52.306;5.634;2023-11-19T10:00:43;100601.19;;;11.65;98.07
60319;BME280;46163;52.306;5.634;2023-11-19T10:03:10;100609.56;;;11.69;100.00
60319;BME280;46163;52.306;5.634;2023-11-19T10:05:37;100611.44;;;11.61;99.36
60319;BME280;46163;52.306;5.634;2023-11-19T10:08:06;100600.56;;;11.63;99.27
60319;BME280;46163;52.306;5.634;2023-11-19T10:10:33;100596.28;;;11.62;99.04
60319;BME280;46163;52.306;5.634;2023-11-19T10:12:59;100604.25;;;11.69;98.70
60319;BME280;46163;52.306;5.634;2023-11-19T10:15:26;100586.88;;;11.53;100.00
60319;BME280;46163;52.306;5.634;2023-11-19T10:17:58;100598.78;;;11.57;99.06
60319;BME280;46163;52.306;5.634;2023-11-19T10:20:23;100589.09;;;11.63;99.15
60319;BME280;46163;52.306;5.634;2023-11-19T10:22:53;100577.91;;;11.47;98.95
60319;BME280;46163;52.306;5.634;2023-11-19T10:25:26;100599.19;;;11.54;100.00
60319;BME280;46163;52.306;5.634;2023-11-19T10:27:52;100579.13;;;11.51;100.00
60319;BME280;46163;52.306;5.634;2023-11-19T10:30:22;100585.84;;;11.54;99.42
60319;BME280;46163;52.306;5.634;2023-11-19T10:33:17;100589.78;;;11.51;100.00
60319;BME280;46163;52.306;5.634;2023-11-19T10:35:52;100584.22;;;11.53;100.00
60319;BME280;46163;52.306;5.634;2023-11-19T10:38:18;100565.34;;;11.54;98.89
60319;BME280;46163;52.306;5.634;2023-11-19T10:40:44;100578.25;;;11.64;99.59
60319;BME280;46163;52.306;5.634;2023-11-19T10:43:10;100582.34;;;11.60;98.10
60319;BME280;46163;52.306;5.634;2023-11-19T10:45:36;100573.03;;;11.76;99.52
60319;BME280;46163;52.306;5.634;2023-11-19T10:48:03;100576.06;;;11.86;96.48
60319;BME280;46163;52.306;5.634;2023-11-19T10:50:36;100575.22;;;11.92;96.48
60319;BME280;46163;52.306;5.634;2023-11-19T10:53:04;100581.25;;;12.06;98.71
60319;BME280;46163;52.306;5.634;2023-11-19T10:55:34;100578.72;;;12.18;95.19
60319;BME280;46163;52.306;5.634;2023-11-19T10:58:10;100562.19;;;12.34;95.96
60319;BME280;46163;52.306;5.634;2023-11-19T11:00:52;100581.88;;;12.33;95.18
60319;BME280;46163;52.306;5.634;2023-11-19T11:03:21;100579.56;;;12.18;94.62
60319;BME280;46163;52.306;5.634;2023-11-19T11:05:49;100589.66;;;12.09;96.08
60319;BME280;46163;52.306;5.634;2023-11-19T11:08:16;100594.66;;;11.99;96.75
60319;BME280;46163;52.306;5.634;2023-11-19T11:10:55;100589.16;;;11.94;98.92
60319;BME280;46163;52.306;5.634;2023-11-19T11:13:24;100584.50;;;11.83;100.00
60319;BME280;46163;52.306;5.634;2023-11-19T11:15:50;100580.22;;;11.82;100.00
60319;BME280;46163;52.306;5.634;2023-11-19T11:18:17;100579.38;;;11.81;100.00
60319;BME280;46163;52.306;5.634;2023-11-19T11:20:47;100580.22;;;11.82;100.00
60319;BME280;46163;52.306;5.634;2023-11-19T11:26:18;100580.22;;;11.82;100.00
60319;BME280;46163;52.306;5.634;2023-11-19T11:28:56;100580.16;;;11.88;100.00
60319;BME280;46163;52.306;5.634;2023-11-19T11:34:25;100565.63;;;11.78;100.00
60319;BME280;46163;52.306;5.634;2023-11-19T11:39:28;100570.59;;;11.74;100.00
60319;BME280;46163;52.306;5.634;2023-11-19T11:45:03;100563.41;;;11.75;98.10
60319;BME280;46163;52.306;5.634;2023-11-19T11:50:14;100563.00;;;11.71;98.83
60319;BME280;46163;52.306;5.634;2023-11-19T11:58:08;100557.66;;;12.09;90.90
60319;BME280;46163;52.306;5.634;2023-11-19T12:00:40;100564.94;;;12.21;92.45
60319;BME280;46163;52.306;5.634;2023-11-19T12:03:07;100563.13;;;12.14;93.93
60319;BME280;46163;52.306;5.634;2023-11-19T12:05:38;100544.81;;;12.00;94.47
60319;BME280;46163;52.306;5.634;2023-11-19T12:08:06;100568.47;;;12.14;92.22
60319;BME280;46163;52.306;5.634;2023-11-19T12:10:36;100553.72;;;12.12;91.39
60319;BME280;46163;52.306;5.634;2023-11-19T12:13:05;100552.47;;;12.14;92.32
60319;BME280;46163;52.306;5.634;2023-11-19T12:18:31;100553.34;;;12.08;92.05
60319;BME280;46163;52.306;5.634;2023-11-19T12:20:58;100560.09;;;12.11;92.49
60319;BME280;46163;52.306;5.634;2023-11-19T12:23:31;100557.88;;;12.08;92.81
60319;BME280;46163;52.306;5.634;2023-11-19T12:25:58;100531.88;;;11.97;93.92
60319;BME280;46163;52.306;5.634;2023-11-19T12:28:24;100551.28;;;12.10;91.52
60319;BME280;46163;52.306;5.634;2023-11-19T12:30:52;100544.91;;;12.11;91.62
60319;BME280;46163;52.306;5.634;2023-11-19T12:33:18;100543.50;;;12.09;93.30
60319;BME280;46163;52.306;5.634;2023-11-19T12:35:46;100558.03;;;12.13;93.63
60319;BME280;46163;52.306;5.634;2023-11-19T12:38:25;100547.47;;;12.00;94.81
60319;BME280;46163;52.306;5.634;2023-11-19T12:43:29;100551.28;;;12.10;93.35
60319;BME280;46163;52.306;5.634;2023-11-19T12:45:55;100549.03;;;12.07;94.98
60319;BME280;46163;52.306;5.634;2023-11-19T12:48:20;100546.75;;;12.11;94.83
60319;BME280;46163;52.306;5.634;2023-11-19T12:50:55;100543.91;;;12.06;95.68
60319;BME280;46163;52.306;5.634;2023-11-19T12:53:23;100536.84;;;11.93;94.85
60319;BME280;46163;52.306;5.634;2023-11-19T12:55:49;100539.53;;;11.93;98.47
60319;BME280;46163;52.306;5.634;2023-11-19T13:01:19;100546.53;;;11.87;98.52
60319;BME280;46163;52.306;5.634;2023-11-19T13:03:46;100548.00;;;11.77;100.00
60319;BME280;46163;52.306;5.634;2023-11-19T13:06:14;100549.91;;;11.70;100.00
60319;BME280;46163;52.306;5.634;2023-11-19T13:08:45;100547.44;;;11.68;100.00
60319;BME280;46163;52.306;5.634;2023-11-19T13:11:12;100543.16;;;11.67;100.00